Time;durP1;ratioP1;P1;durP2;ratioP2;P2;SDS_P1;SDS_P2;PMS_P1;PMS_P2;Temp;Humidity;BMP_temperature;BMP_pressure;BME280_temperature;BME280_humidity;BME280_pressure;Samples;Min_cycle;Max_cycle;Signal;HPM_P1;HPM_P2
2023/12/19 00:01:13;;;;;;;;;;;;;;;;;;2208300;59;2483;-80
2023/12/19 00:03:44;;;;;;;;;;;;;;;;;;2206849;67;2482;-81
2023/12/19 00:06:14;;;;;;;;;;;;;;;;;;2208670;59;2450;-81
2023/12/19 00:08:44;;;;;;;;;;;;;;;;;;2207966;59;2268;-80
2023/12/19 00:11:24;;;;;;;;;;;;;;;;;;2208468;59;1723;-81
2023/12/19 00:13:54;;;;;;;;;;;;;;;;;;2210110;67;2404;-80
2023/12/19 00:16:27;;;;;;;;;;;;;;;;;;2211696;59;2133;-80
2023/12/19 00:18:57;;;;;;;;;;;;;;;;;;2210747;59;1859;-80
2023/12/19 00:21:31;;;;;;;;;;;;;;;;;;2211485;67;2882;-81
2023/12/19 00:24:06;;;;;;;;;;;;;;;;;;2209443;59;2475;-81
2023/12/19 00:26:37;;;;;;;;;;;;;;;;;;2212119;67;2770;-80
2023/12/19 00:29:08;;;;;;;;;;;;;;;;;;2208624;59;2247;-80
2023/12/19 00:31:39;;;;;;;;;;;;;;;;;;2208129;59;2419;-81
2023/12/19 00:34:09;;;;;;;;;;;;;;;;;;2208268;67;2286;-81
2023/12/19 00:36:45;;;;;;;;;;;;;;;;;;2209097;67;1551;-81
2023/12/19 00:39:20;;;;;;;;;;;;;;;;;;2211436;59;2450;-81
2023/12/19 00:41:53;;;;;;;;;;;;;;;;;;2203613;59;1765;-80
2023/12/19 00:44:25;;;;;;;;;;;;;;;;;;2205950;59;1731;-80
2023/12/19 00:46:55;;;;;;;;;;;;;;;;;;2212579;67;1711;-80
2023/12/19 00:49:26;;;;;;;;;;;;;;;;;;2205352;67;2599;-80
2023/12/19 00:51:56;;;;;;;;;;;;;;;;;;2211877;67;2467;-81
2023/12/19 00:54:34;;;;;;;;;;;;;;;;;;2208683;59;2090;-80
2023/12/19 00:57:04;;;;;;;;;;;;;;;;;;2204772;59;2480;-80
2023/12/19 00:59:35;;;;;;;;;;;;;;;;;;2207783;67;2709;-80
2023/12/19 01:02:06;;;;;;;;;;;;;;;;;;2211106;59;2586;-80
2023/12/19 01:04:36;;;;;;;;;;;;;;;;;;2207897;59;1612;-81
2023/12/19 01:07:10;;;;;;;;;;;;;;;;;;2208682;59;2318;-80
2023/12/19 01:09:48;;;;;;;;;;;;;;;;;;2208227;59;1701;-80
2023/12/19 01:12:19;;;;;;;;;;;;;;;;;;2207435;67;2294;-80
2023/12/19 01:14:49;;;;;;;;;;;;;;;;;;2212656;59;1848;-81
2023/12/19 01:17:20;;;;;;;;;;;;;;;;;;2204505;59;1895;-81
2023/12/19 01:19:50;;;;;;;;;;;;;;;;;;2207669;59;2237;-81
2023/12/19 01:22:23;;;;;;;;;;;;;;;;;;2208076;67;2227;-80
2023/12/19 01:24:54;;;;;;;;;;;;;;;;;;2205707;59;2695;-81
2023/12/19 01:27:24;;;;;;;;;;;;;;;;;;2211233;59;2300;-81
2023/12/19 01:30:16;;;;;;;;;;;;;;;;;;2214270;59;2343;-80
2023/12/19 01:32:48;;;;;;;;;;;;;;;;;;2212694;59;2326;-80
2023/12/19 01:35:19;;;;;;;;;;;;;;;;;;2207595;67;2775;-81
2023/12/19 01:37:53;;;;;;;;;;;;;;;;;;2208724;59;2126;-81
2023/12/19 01:40:33;;;;;;;;;;;;;;;;;;2211524;67;2178;-80
2023/12/19 01:43:14;;;;;;;;;;;;;;;;;;2208173;67;2607;-80
2023/12/19 01:45:45;;;;;;;;;;;;;;;;;;2212137;67;2334;-80
2023/12/19 01:48:26;;;;;;;;;;;;;;;;;;2204481;59;2084;-81
2023/12/19 01:51:16;;;;;;;;;;;;;;;;;;;;;
2023/12/19 01:53:48;;;;;;;;;;;;;;;;;;2211468;67;2349;-80
2023/12/19 01:56:21;;;;;;;;;;;;;;;;;;2216429;59;2477;-81
2023/12/19 01:58:54;;;;;;;;;;;;;;;;;;2210546;60;2049;-81
2023/12/19 02:01:28;;;;;;;;;;;;;;;;;;2213859;67;2429;-80
2023/12/19 02:04:07;;;;;;;;;;;;;;;;;;2213007;59;2494;-81
2023/12/19 02:06:37;;;;;;;;;;;;;;;;;;2210464;59;1834;-81
2023/12/19 02:09:15;;;;;;;;;;;;;;;;;;2215857;59;2192;-80
2023/12/19 02:12:08;;;;;;;;;;;;;;;;;;2216452;59;1941;-81
2023/12/19 02:14:45;;;;;;;;;;;;;;;;;;2215706;59;2525;-81
2023/12/19 02:20:14;;;;;;;;;;;;;;;;;;2236415;53;2118;-81
2023/12/19 02:22:51;;;;;;;;;;;;;;;;;;2217132;59;1816;-81
2023/12/19 02:25:42;;;;;;;;;;;;;;;;;;2218192;67;1529;-81
2023/12/19 02:28:19;;;;;;;;;;;;;;;;;;2213338;60;1771;-81
2023/12/19 02:30:54;;;;;;;;;;;;;;;;;;2214591;59;1301;-84
2023/12/19 02:33:30;;;;;;;;;;;;;;;;;;2213981;59;2107;-81
2023/12/19 02:36:10;;;;;;;;;;;;;;;;;;2217666;59;1372;-80
2023/12/19 02:39:23;;;;;;;;;;;;;;;;;;2216831;67;1973;-81
2023/12/19 02:41:54;;;;;;;;;;;;;;;;;;2215607;67;1536;-81
2023/12/19 02:44:35;;;;;;;;;;;;;;;;;;2218175;59;1350;-81
2023/12/19 02:47:08;;;;;;;;;;;;;;;;;;2215703;67;1288;-80
2023/12/19 02:49:45;;;;;;;;;;;;;;;;;;2218043;53;2000;-20
2023/12/19 02:52:19;;;;;;;;;;;;;;;;;;2210161;67;1512;-20
2023/12/19 02:54:49;;;;;;;;;;;;;;;;;;2204667;67;1751;-20
2023/12/19 02:57:20;;;;;;;;;;;;;;;;;;2203740;59;1388;-20
2023/12/19 02:59:52;;;;;;;;;;;;;;;;;;2209453;67;1941;-20
2023/12/19 03:02:27;;;;;;;;;;;;;;;;;;2211908;67;1567;-20
2023/12/19 03:04:58;;;;;;;;;;;;;;;;;;2208709;59;1316;-20
2023/12/19 03:07:36;;;;;;;;;;;;;;;;;;2206864;59;1568;-20
2023/12/19 03:10:09;;;;;;;;;;;;;;;;;;2208625;59;1299;-20
2023/12/19 03:12:40;;;;;;;;;;;;;;;;;;2203416;59;1424;-20
2023/12/19 03:15:11;;;;;;;;;;;;;;;;;;2209215;59;1606;-20
2023/12/19 03:17:41;;;;;;;;;;;;;;;;;;2204908;67;1479;-20
2023/12/19 03:20:11;;;;;;;;;;;;;;;;;;2197556;67;2096;-20
2023/12/19 03:22:41;;;;;;;;;;;;;;;;;;2199576;67;1687;-20
2023/12/19 03:25:11;;;;;;;;;;;;;;;;;;2203856;67;1410;-20
2023/12/19 03:27:42;;;;;;;;;;;;;;;;;;2204404;67;1932;-20
2023/12/19 03:30:12;;;;;;;;;;;;;;;;;;2203535;67;1376;-20
2023/12/19 03:32:42;;;;;;;;;;;;;;;;;;2204782;59;2356;-20
2023/12/19 03:35:12;;;;;;;;;;;;;;;;;;2203510;67;1413;-20
2023/12/19 03:37:43;;;;;;;;;;;;;;;;;;2204867;67;1444;-20
2023/12/19 03:40:13;;;;;;;;;;;;;;;;;;2204243;67;1943;-20
2023/12/19 03:42:43;;;;;;;;;;;;;;;;;;2204657;67;1546;-20
2023/12/19 03:45:13;;;;;;;;;;;;;;;;;;2201449;59;1312;-20
2023/12/19 03:47:44;;;;;;;;;;;;;;;;;;2202399;59;1824;-20
2023/12/19 03:50:14;;;;;;;;;;;;;;;;;;2200992;67;1747;-20
2023/12/19 03:52:45;;;;;;;;;;;;;;;;;;2204342;67;1337;-20
2023/12/19 03:55:16;;;;;;;;;;;;;;;;;;2201295;59;1738;-20
2023/12/19 03:57:46;;;;;;;;;;;;;;;;;;2199287;59;1509;-20
2023/12/19 04:00:18;;;;;;;;;;;;;;;;;;2204434;67;1994;-20
2023/12/19 04:02:48;;;;;;;;;;;;;;;;;;2201619;67;1302;-20
2023/12/19 04:05:18;;;;;;;;;;;;;;;;;;2205141;67;1929;-21
2023/12/19 04:07:48;;;;;;;;;;;;;;;;;;2206070;59;1635;-20
2023/12/19 04:10:18;;;;;;;;;;;;;;;;;;2201830;59;1711;-20
2023/12/19 04:12:49;;;;;;;;;;;;;;;;;;2205506;59;1634;-20
2023/12/19 04:15:19;;;;;;;;;;;;;;;;;;2204279;59;1766;-20
2023/12/19 04:17:49;;;;;;;;;;;;;;;;;;2205669;67;1670;-20
2023/12/19 04:20:20;;;;;;;;;;;;;;;;;;2204895;67;1945;-20
2023/12/19 04:22:50;;;;;;;;;;;;;;;;;;2205471;67;1738;-20
2023/12/19 04:25:21;;;;;;;;;;;;;;;;;;2201726;67;1486;-20
2023/12/19 04:27:52;;;;;;;;;;;;;;;;;;2205326;67;1541;-20
2023/12/19 04:30:22;;;;;;;;;;;;;;;;;;2203858;67;1774;-19
2023/12/19 04:32:52;;;;;;;;;;;;;;;;;;2205296;59;2102;-20
2023/12/19 04:35:22;;;;;;;;;;;;;;;;;;2202496;67;1400;-20
2023/12/19 04:37:52;;;;;;;;;;;;;;;;;;2205499;67;1610;-20
2023/12/19 04:40:23;;;;;;;;;;;;;;;;;;2204936;67;1931;-20
2023/12/19 04:42:53;;;;;;;;;;;;;;;;;;2205295;67;1881;-20
2023/12/19 04:45:24;;;;;;;;;;;;;;;;;;2204162;67;1524;-20
2023/12/19 04:47:55;;;;;;;;;;;;;;;;;;2202867;59;1588;-20
2023/12/19 04:50:25;;;;;;;;;;;;;;;;;;2204655;67;1825;-20
2023/12/19 04:52:55;;;;;;;;;;;;;;;;;;2204983;67;1317;-20
2023/12/19 04:55:25;;;;;;;;;;;;;;;;;;2201699;59;1878;-20
2023/12/19 04:57:55;;;;;;;;;;;;;;;;;;2202519;59;1756;-20
2023/12/19 05:00:26;;;;;;;;;;;;;;;;;;2201949;67;1975;-21
2023/12/19 05:02:56;;;;;;;;;;;;;;;;;;2205115;67;2201;-21
2023/12/19 05:05:26;;;;;;;;;;;;;;;;;;2203959;59;2393;-20
2023/12/19 05:07:56;;;;;;;;;;;;;;;;;;2205498;59;1704;-20
2023/12/19 05:10:27;;;;;;;;;;;;;;;;;;2206232;53;3592;-22
2023/12/19 05:12:57;;;;;;;;;;;;;;;;;;2213098;58;1963;-22
2023/12/19 05:15:27;;;;;;;;;;;;;;;;;;2214864;58;1735;-22
2023/12/19 05:17:57;;;;;;;;;;;;;;;;;;2213463;58;1862;-22
2023/12/19 05:20:27;;;;;;;;;;;;;;;;;;2213944;58;2111;-23
2023/12/19 05:22:59;;;;;;;;;;;;;;;;;;2212542;59;1864;-23
2023/12/19 05:25:30;;;;;;;;;;;;;;;;;;2211719;66;2497;-23
2023/12/19 05:28:00;;;;;;;;;;;;;;;;;;2211128;59;1845;-23
2023/12/19 05:30:30;;;;;;;;;;;;;;;;;;2210217;66;1929;-23
2023/12/19 05:33:00;;;;;;;;;;;;;;;;;;2207924;59;2617;-23
2023/12/19 05:35:31;;;;;;;;;;;;;;;;;;2210118;59;2540;-23
2023/12/19 05:38:01;;;;;;;;;;;;;;;;;;2203542;59;4539;-23
2023/12/19 05:40:32;;;;;;;;;;;;;;;;;;2210185;59;2072;-23
2023/12/19 05:43:02;;;;;;;;;;;;;;;;;;2211519;59;2000;-23
2023/12/19 05:45:32;;;;;;;;;;;;;;;;;;2210006;59;2986;-23
2023/12/19 05:48:03;;;;;;;;;;;;;;;;;;2209516;59;2414;-23
2023/12/19 05:50:33;;;;;;;;;;;;;;;;;;2209752;59;2408;-23
2023/12/19 05:53:03;;;;;;;;;;;;;;;;;;2211099;59;2050;-23
2023/12/19 05:55:34;;;;;;;;;;;;;;;;;;2210521;59;2762;-23
2023/12/19 05:58:04;;;;;;;;;;;;;;;;;;2208114;59;2848;-23
2023/12/19 06:00:35;;;;;;;;;;;;;;;;;;2211110;59;2520;-23
2023/12/19 06:03:05;;;;;;;;;;;;;;;;;;2205124;59;3288;-23
2023/12/19 06:05:39;;;;;;;;;;;;;;;;;;2211346;59;4159;-23
2023/12/19 06:08:09;;;;;;;;;;;;;;;;;;2202204;59;3141;-23
2023/12/19 06:10:39;;;;;;;;;;;;;;;;;;2209888;59;3841;-23
2023/12/19 06:13:10;;;;;;;;;;;;;;;;;;2208489;59;2151;-23
2023/12/19 06:15:40;;;;;;;;;;;;;;;;;;2210446;58;2256;-23
2023/12/19 06:18:10;;;;;;;;;;;;;;;;;;2211855;59;2845;-23
2023/12/19 06:20:42;;;;;;;;;;;;;;;;;;2209958;58;2035;-23
2023/12/19 06:23:12;;;;;;;;;;;;;;;;;;2210544;59;3242;-23
2023/12/19 06:25:43;;;;;;;;;;;;;;;;;;2211444;59;4517;-23
2023/12/19 06:28:16;;;;;;;;;;;;;;;;;;2208012;59;2586;-23
2023/12/19 06:30:46;;;;;;;;;;;;;;;;;;2205562;59;4053;-23
2023/12/19 06:33:16;;;;;;;;;;;;;;;;;;2209056;59;2608;-23
2023/12/19 06:35:51;;;;;;;;;;;;;;;;;;2210837;59;4501;-23
2023/12/19 06:38:22;;;;;;;;;;;;;;;;;;2208143;59;2688;-22
2023/12/19 06:40:52;;;;;;;;;;;;;;;;;;2211575;59;3712;-22
2023/12/19 06:43:22;;;;;;;;;;;;;;;;;;2210954;59;2795;-23
2023/12/19 06:45:53;;;;;;;;;;;;;;;;;;2212555;58;2405;-23
2023/12/19 06:48:23;;;;;;;;;;;;;;;;;;2211618;59;3701;-22
2023/12/19 06:50:53;;;;;;;;;;;;;;;;;;2205794;59;2354;-23
2023/12/19 06:53:23;;;;;;;;;;;;;;;;;;2211547;59;2389;-22
2023/12/19 06:55:54;;;;;;;;;;;;;;;;;;2212580;59;2233;-22
2023/12/19 06:58:24;;;;;;;;;;;;;;;;;;2209585;59;2327;-23
2023/12/19 07:00:54;;;;;;;;;;;;;;;;;;2212444;66;2610;-23
2023/12/19 07:03:24;;;;;;;;;;;;;;;;;;2211794;63;1792;-23
2023/12/19 07:05:55;;;;;;;;;;;;;;;;;;2205457;59;2466;-24
2023/12/19 07:08:25;;;;;;;;;;;;;;;;;;2208319;59;2192;-23
2023/12/19 07:10:56;;;;;;;;;;;;;;;;;;2209026;59;2331;-23
2023/12/19 07:13:26;;;;;;;;;;;;;;;;;;2210858;59;2900;-23
2023/12/19 07:15:56;;;;;;;;;;;;;;;;;;2212390;59;2159;-22
2023/12/19 07:18:26;;;;;;;;;;;;;;;;;;2210888;59;2202;-22
2023/12/19 07:20:57;;;;;;;;;;;;;;;;;;2211226;59;2939;-23
2023/12/19 07:23:27;;;;;;;;;;;;;;;;;;2211942;59;2272;-22
2023/12/19 07:25:57;;;;;;;;;;;;;;;;;;2211826;59;2640;-22
2023/12/19 07:28:28;;;;;;;;;;;;;;;;;;2209062;59;2411;-22
2023/12/19 07:30:58;;;;;;;;;;;;;;;;;;2208913;59;2526;-23
2023/12/19 07:33:28;;;;;;;;;;;;;;;;;;2210533;59;2261;-22
2023/12/19 07:35:58;;;;;;;;;;;;;;;;;;2211565;59;1965;-22
2023/12/19 07:38:29;;;;;;;;;;;;;;;;;;2212222;59;2491;-22
2023/12/19 07:40:59;;;;;;;;;;;;;;;;;;2212572;59;2054;-23
2023/12/19 07:43:31;;;;;;;;;;;;;;;;;;2212723;59;2351;-23
2023/12/19 07:46:02;;;;;;;;;;;;;;;;;;2207315;59;2550;-22
2023/12/19 07:48:33;;;;;;;;;;;;;;;;;;2209221;59;2034;-22
2023/12/19 07:51:03;;;;;;;;;;;;;;;;;;2212633;59;1645;-22
2023/12/19 07:53:34;;;;;;;;;;;;;;;;;;2211285;59;3328;-22
2023/12/19 07:56:04;;;;;;;;;;;;;;;;;;2212346;59;2258;-24
2023/12/19 07:58:35;;;;;;;;;;;;;;;;;;2211409;59;1987;-23
2023/12/19 08:01:05;;;;;;;;;;;;;;;;;;2208702;66;1941;-23
2023/12/19 08:03:35;;;;;;;;;;;;;;;;;;2212537;59;2730;-23
2023/12/19 08:06:06;;;;;;;;;;;;;;;;;;2212629;59;3880;-23
2023/12/19 08:08:36;;;;;;;;;;;;;;;;;;2211772;59;2696;-23
2023/12/19 08:11:06;;;;;;;;;;;;;;;;;;2212757;58;1920;-23
2023/12/19 08:13:37;;;;;;;;;;;;;;;;;;2210772;59;2514;-23
2023/12/19 08:16:08;;;;;;;;;;;;;;;;;;2211219;59;2855;-23
2023/12/19 08:18:38;;;;;;;;;;;;;;;;;;2207440;59;1896;-23
2023/12/19 08:21:08;;;;;;;;;;;;;;;;;;2212648;59;1944;-23
2023/12/19 08:23:40;;;;;;;;;;;;;;;;;;2211886;59;1808;-23
2023/12/19 08:26:10;;;;;;;;;;;;;;;;;;2212699;66;2268;-23
2023/12/19 08:28:41;;;;;;;;;;;;;;;;;;2211800;59;2202;-23
2023/12/19 08:31:11;;;;;;;;;;;;;;;;;;2211620;59;1979;-23
2023/12/19 08:33:43;;;;;;;;;;;;;;;;;;2212709;59;2170;-23
2023/12/19 08:36:14;;;;;;;;;;;;;;;;;;2210489;59;1886;-23
2023/12/19 08:38:45;;;;;;;;;;;;;;;;;;2212793;59;2762;-23
2023/12/19 08:41:15;;;;;;;;;;;;;;;;;;2214914;66;2165;-23
2023/12/19 08:43:46;;;;;;;;;;;;;;;;;;2212727;59;2480;-23
2023/12/19 08:46:16;;;;;;;;;;;;;;;;;;2214220;59;2569;-23
2023/12/19 08:48:47;;;;;;;;;;;;;;;;;;2212848;59;1825;-23
2023/12/19 08:51:18;;;;;;;;;;;;;;;;;;2213200;66;2503;-23
2023/12/19 08:53:48;;;;;;;;;;;;;;;;;;2209476;59;2640;-23
2023/12/19 08:56:18;;;;;;;;;;;;;;;;;;2209080;59;2762;-23
2023/12/19 08:58:49;;;;;;;;;;;;;;;;;;2210506;59;2314;-23
2023/12/19 09:01:19;;;;;;;;;;;;;;;;;;2213345;59;2459;-23
2023/12/19 09:03:49;;;;;;;;;;;;;;;;;;2211936;59;2201;-23
2023/12/19 09:06:20;;;;;;;;;;;;;;;;;;2213215;59;2788;-23
2023/12/19 09:08:50;;;;;;;;;;;;;;;;;;2211330;59;3215;-23
2023/12/19 09:11:20;;;;;;;;;;;;;;;;;;2210187;59;2276;-23
2023/12/19 09:13:50;;;;;;;;;;;;;;;;;;2211352;59;2245;-23
2023/12/19 09:16:21;;;;;;;;;;;;;;;;;;2213109;66;1686;-24
2023/12/19 09:18:51;;;;;;;;;;;;;;;;;;2212796;59;2377;-23
2023/12/19 09:21:23;;;;;;;;;;;;;;;;;;2211770;59;2955;-23
2023/12/19 09:23:53;;;;;;;;;;;;;;;;;;2212659;66;1785;-23
2023/12/19 09:26:23;;;;;;;;;;;;;;;;;;2213988;59;2836;-23
2023/12/19 09:28:57;;;;;;;;;;;;;;;;;;2210835;59;2139;-23
2023/12/19 09:31:29;;;;;;;;;;;;;;;;;;2212158;59;3757;-23
2023/12/19 09:34:00;;;;;;;;;;;;;;;;;;2205882;59;2100;-23
2023/12/19 09:36:31;;;;;;;;;;;;;;;;;;2209242;59;2005;-23
2023/12/19 09:39:03;;;;;;;;;;;;;;;;;;2212706;59;2842;-33
2023/12/19 09:41:33;;;;;;;;;;;;;;;;;;2211697;59;1993;-23
2023/12/19 09:44:03;;;;;;;;;;;;;;;;;;2211444;59;1958;-23
2023/12/19 09:46:34;;;;;;;;;;;;;;;;;;2211885;59;2793;-23
2023/12/19 09:49:04;;;;;;;;;;;;;;;;;;2214113;59;4000;-23
2023/12/19 09:51:37;;;;;;;;;;;;;;;;;;2210880;59;2452;-23
2023/12/19 09:54:07;;;;;;;;;;;;;;;;;;2209195;66;2093;-23
2023/12/19 09:56:37;;;;;;;;;;;;;;;;;;2208989;59;3824;-23
2023/12/19 09:59:08;;;;;;;;;;;;;;;;;;2210722;59;1837;-22
2023/12/19 10:01:39;;;;;;;;;;;;;;;;;;2210533;59;2374;-22
2023/12/19 10:04:13;;;;;;;;;;;;;;;;;;2214133;66;2234;-23
2023/12/19 10:06:58;;;;;;;;;;;;;;;;;;2212060;59;1973;-22
2023/12/19 10:09:28;;;;;;;;;;;;;;;;;;2212062;59;2367;-22
2023/12/19 10:12:06;;;;;;;;;;;;;;;;;;2211906;59;2498;-23
2023/12/19 10:14:36;;;;;;;;;;;;;;;;;;2212313;58;2625;-23
2023/12/19 10:17:11;;;;;;;;;;;;;;;;;;2212731;59;2731;-23
2023/12/19 10:19:42;;;;;;;;;;;;;;;;;;2207888;59;2455;-44
2023/12/19 10:22:16;;;;;;;;;;;;;;;;;;2212279;59;2947;-22
2023/12/19 10:24:46;;;;;;;;;;;;;;;;;;2207846;59;2682;-23
2023/12/19 10:27:21;;;;;;;;;;;;;;;;;;2208194;59;3348;-22
2023/12/19 10:29:53;;;;;;;;;;;;;;;;;;2209947;59;1870;-22
2023/12/19 10:32:23;;;;;;;;;;;;;;;;;;2211013;59;2815;-22
2023/12/19 10:34:55;;;;;;;;;;;;;;;;;;2210756;59;2663;-22
2023/12/19 10:37:27;;;;;;;;;;;;;;;;;;2210923;59;2328;-23
2023/12/19 10:40:10;;;;;;;;;;;;;;;;;;2211658;66;1940;-22
2023/12/19 10:42:40;;;;;;;;;;;;;;;;;;2211465;59;2143;-22
2023/12/19 10:45:10;;;;;;;;;;;;;;;;;;2213292;59;3972;-23
2023/12/19 10:47:41;;;;;;;;;;;;;;;;;;2212049;59;2405;-22
2023/12/19 10:50:12;;;;;;;;;;;;;;;;;;2211770;59;2470;-22
2023/12/19 10:52:43;;;;;;;;;;;;;;;;;;2210942;59;2080;-23
2023/12/19 10:55:17;;;;;;;;;;;;;;;;;;2209407;59;2117;-23
2023/12/19 10:57:48;;;;;;;;;;;;;;;;;;2213427;59;2357;-22
2023/12/19 11:00:22;;;;;;;;;;;;;;;;;;2212011;59;2179;-22
2023/12/19 11:02:59;;;;;;;;;;;;;;;;;;2211803;59;2142;-22
2023/12/19 11:05:32;;;;;;;;;;;;;;;;;;2208454;59;2901;-22
2023/12/19 11:08:10;;;;;;;;;;;;;;;;;;2205722;59;3483;-22
2023/12/19 11:10:40;;;;;;;;;;;;;;;;;;2206759;53;3538;-26
2023/12/19 11:13:11;;;;;;;;;;;;;;;;;;2199977;59;2542;-26
2023/12/19 11:15:49;;;;;;;;;;;;;;;;;;2196402;59;2084;-24
2023/12/19 11:18:33;;;;;;;;;;;;;;;;;;2196853;59;2411;-25
2023/12/19 11:21:27;;;;;;;;;;;;;;;;;;2197762;67;2261;-26
2023/12/19 11:24:03;;;;;;;;;;;;;;;;;;2195260;60;2089;-26
2023/12/19 11:26:37;;;;;;;;;;;;;;;;;;2197338;67;1794;-24
2023/12/19 11:29:27;;;;;;;;;;;;;;;;;;2197045;59;2227;-24
2023/12/19 11:31:58;;;;;;;;;;;;;;;;;;2197054;59;2462;-24
2023/12/19 11:34:30;;;;;;;;;;;;;;;;;;2197861;59;1984;-24
2023/12/19 11:37:04;;;;;;;;;;;;;;;;;;2197669;59;2455;-24
2023/12/19 11:39:40;;;;;;;;;;;;;;;;;;2196811;59;2123;-24
2023/12/19 11:42:30;;;;;;;;;;;;;;;;;;2197269;59;2362;-24
2023/12/19 11:45:00;;;;;;;;;;;;;;;;;;2197794;59;2510;-24
2023/12/19 11:47:30;;;;;;;;;;;;;;;;;;2196580;59;1970;-24
2023/12/19 11:50:03;;;;;;;;;;;;;;;;;;2197456;59;2426;-24
2023/12/19 11:52:37;;;;;;;;;;;;;;;;;;2196273;67;2416;-23
2023/12/19 11:55:07;;;;;;;;;;;;;;;;;;2197473;59;1917;-24
2023/12/19 11:57:38;;;;;;;;;;;;;;;;;;2196366;59;2134;-24
2023/12/19 12:00:11;;;;;;;;;;;;;;;;;;2196986;67;1937;-24
2023/12/19 12:02:41;;;;;;;;;;;;;;;;;;2196485;67;1760;-26
2023/12/19 12:05:13;;;;;;;;;;;;;;;;;;2198187;59;1713;-27
2023/12/19 12:07:51;;;;;;;;;;;;;;;;;;2197223;59;1777;-27
2023/12/19 12:10:22;;;;;;;;;;;;;;;;;;2194281;59;2788;-24
2023/12/19 12:12:53;;;;;;;;;;;;;;;;;;2196111;59;2881;-24
2023/12/19 12:15:23;;;;;;;;;;;;;;;;;;2198291;59;2169;-24
2023/12/19 12:18:04;;;;;;;;;;;;;;;;;;2194514;59;1772;-24
2023/12/19 12:20:34;;;;;;;;;;;;;;;;;;2197371;59;2132;-25
2023/12/19 12:23:04;;;;;;;;;;;;;;;;;;2196987;59;2888;-25
2023/12/19 12:25:35;;;;;;;;;;;;;;;;;;2196892;59;2681;-24
2023/12/19 12:28:07;;;;;;;;;;;;;;;;;;2197615;59;2743;-25
2023/12/19 12:30:37;;;;;;;;;;;;;;;;;;2196753;59;2665;-25
2023/12/19 12:33:08;;;;;;;;;;;;;;;;;;2195350;59;2298;-25
2023/12/19 12:35:38;;;;;;;;;;;;;;;;;;2196098;67;2351;-24
2023/12/19 12:38:16;;;;;;;;;;;;;;;;;;2197632;59;2732;-25
2023/12/19 12:40:59;;;;;;;;;;;;;;;;;;2195914;59;2212;-24
2023/12/19 12:43:37;;;;;;;;;;;;;;;;;;2197799;59;1750;-24
2023/12/19 12:46:11;;;;;;;;;;;;;;;;;;2197382;67;1854;-24
2023/12/19 12:48:41;;;;;;;;;;;;;;;;;;2196344;67;2447;-25
2023/12/19 12:51:16;;;;;;;;;;;;;;;;;;2198265;67;1855;-24
2023/12/19 12:53:53;;;;;;;;;;;;;;;;;;2197079;67;2492;-24
2023/12/19 12:56:29;;;;;;;;;;;;;;;;;;2197461;59;2710;-25
2023/12/19 12:59:06;;;;;;;;;;;;;;;;;;2197020;67;2474;-24
2023/12/19 13:01:38;;;;;;;;;;;;;;;;;;2195961;67;2476;-24
2023/12/19 13:04:09;;;;;;;;;;;;;;;;;;2198559;59;1761;-24
2023/12/19 13:06:43;;;;;;;;;;;;;;;;;;2196336;67;2064;-24
2023/12/19 13:09:14;;;;;;;;;;;;;;;;;;2198396;67;2093;-25
2023/12/19 13:11:45;;;;;;;;;;;;;;;;;;2196563;59;2433;-24
2023/12/19 13:14:15;;;;;;;;;;;;;;;;;;2197565;59;3171;-25
2023/12/19 13:16:46;;;;;;;;;;;;;;;;;;2196887;59;2006;-24
2023/12/19 13:19:18;;;;;;;;;;;;;;;;;;2197969;67;1930;-24
2023/12/19 13:21:48;;;;;;;;;;;;;;;;;;2197240;59;1992;-24
2023/12/19 13:24:18;;;;;;;;;;;;;;;;;;2199842;67;1891;-24
2023/12/19 13:26:49;;;;;;;;;;;;;;;;;;2197449;59;2271;-24
2023/12/19 13:29:20;;;;;;;;;;;;;;;;;;2196950;67;2371;-24
2023/12/19 13:31:50;;;;;;;;;;;;;;;;;;2195760;59;2423;-24
2023/12/19 13:34:20;;;;;;;;;;;;;;;;;;2197006;59;2465;-24
2023/12/19 13:36:50;;;;;;;;;;;;;;;;;;2193414;59;2320;-24
2023/12/19 13:39:21;;;;;;;;;;;;;;;;;;2195403;59;3878;-24
2023/12/19 13:41:52;;;;;;;;;;;;;;;;;;2195857;59;4237;-24
2023/12/19 13:44:22;;;;;;;;;;;;;;;;;;2197169;59;1980;-24
2023/12/19 13:46:52;;;;;;;;;;;;;;;;;;2196858;67;2184;-24
2023/12/19 13:49:23;;;;;;;;;;;;;;;;;;2198877;59;1778;-24
2023/12/19 13:51:54;;;;;;;;;;;;;;;;;;2196137;67;2185;-24
2023/12/19 13:54:26;;;;;;;;;;;;;;;;;;2198089;59;2045;-24
2023/12/19 13:56:56;;;;;;;;;;;;;;;;;;2197198;59;2254;-24
2023/12/19 13:59:27;;;;;;;;;;;;;;;;;;2194501;67;1674;-24
2023/12/19 14:01:58;;;;;;;;;;;;;;;;;;2197216;67;2294;-24
2023/12/19 14:04:28;;;;;;;;;;;;;;;;;;2197525;67;1950;-24
2023/12/19 14:06:59;;;;;;;;;;;;;;;;;;2197196;67;2117;-24
2023/12/19 14:09:31;;;;;;;;;;;;;;;;;;2197586;59;2049;-24
2023/12/19 14:12:02;;;;;;;;;;;;;;;;;;2196400;59;2267;-24
2023/12/19 14:14:32;;;;;;;;;;;;;;;;;;2198090;59;3011;-24
2023/12/19 14:17:04;;;;;;;;;;;;;;;;;;2197241;67;1808;-24
2023/12/19 14:19:35;;;;;;;;;;;;;;;;;;2197598;59;2707;-24
2023/12/19 14:22:05;;;;;;;;;;;;;;;;;;2197109;59;2559;-24
2023/12/19 14:24:36;;;;;;;;;;;;;;;;;;2197622;67;1814;-24
2023/12/19 14:27:07;;;;;;;;;;;;;;;;;;2194453;67;2059;-24
2023/12/19 14:29:37;;;;;;;;;;;;;;;;;;2197531;67;1975;-24
2023/12/19 14:32:08;;;;;;;;;;;;;;;;;;2197320;59;2104;-24
2023/12/19 14:34:41;;;;;;;;;;;;;;;;;;2196154;59;2251;-24
2023/12/19 14:37:12;;;;;;;;;;;;;;;;;;2197352;59;2066;-24
2023/12/19 14:39:42;;;;;;;;;;;;;;;;;;2196754;67;1857;-24
2023/12/19 14:42:12;;;;;;;;;;;;;;;;;;2196879;59;2926;-24
2023/12/19 14:44:43;;;;;;;;;;;;;;;;;;2196533;67;1816;-24
2023/12/19 14:47:13;;;;;;;;;;;;;;;;;;2198532;59;1986;-24
2023/12/19 14:49:44;;;;;;;;;;;;;;;;;;2196625;67;1945;-24
2023/12/19 14:52:14;;;;;;;;;;;;;;;;;;2198348;67;1861;-24
2023/12/19 14:54:45;;;;;;;;;;;;;;;;;;2196084;59;1836;-24
2023/12/19 14:57:15;;;;;;;;;;;;;;;;;;2197951;59;2058;-24
2023/12/19 14:59:46;;;;;;;;;;;;;;;;;;2196771;67;2177;-24
2023/12/19 15:02:16;;;;;;;;;;;;;;;;;;2197832;67;1891;-24
2023/12/19 15:04:47;;;;;;;;;;;;;;;;;;2196321;63;2226;-24
2023/12/19 15:07:17;;;;;;;;;;;;;;;;;;2197959;59;2071;-24
2023/12/19 15:09:47;;;;;;;;;;;;;;;;;;2196834;59;2088;-24
2023/12/19 15:12:18;;;;;;;;;;;;;;;;;;2197850;59;2573;-24
2023/12/19 15:14:48;;;;;;;;;;;;;;;;;;2196857;59;1899;-24
2023/12/19 15:17:19;;;;;;;;;;;;;;;;;;2196747;67;2030;-24
2023/12/19 15:19:49;;;;;;;;;;;;;;;;;;2196810;67;2069;-24
2023/12/19 15:22:19;;;;;;;;;;;;;;;;;;2197608;59;1818;-24
2023/12/19 15:24:49;;;;;;;;;;;;;;;;;;2197567;67;2217;-24
2023/12/19 15:27:19;;;;;;;;;;;;;;;;;;2197703;67;1957;-24
2023/12/19 15:29:53;;;;;;;;;;;;;;;;;;2195501;60;1933;-24
2023/12/19 15:32:23;;;;;;;;;;;;;;;;;;2197629;59;2401;-24
2023/12/19 15:34:54;;;;;;;;;;;;;;;;;;2196158;67;2075;-24
2023/12/19 15:37:24;;;;;;;;;;;;;;;;;;2196591;67;1747;-24
2023/12/19 15:39:54;;;;;;;;;;;;;;;;;;2197097;59;1935;-24
2023/12/19 15:42:24;;;;;;;;;;;;;;;;;;2198206;67;1808;-24
2023/12/19 15:44:55;;;;;;;;;;;;;;;;;;2196617;67;2132;-24
2023/12/19 15:47:25;;;;;;;;;;;;;;;;;;2196468;67;2041;-24
2023/12/19 15:49:55;;;;;;;;;;;;;;;;;;2193440;59;2426;-24
2023/12/19 15:52:28;;;;;;;;;;;;;;;;;;2197818;67;2510;-24
2023/12/19 15:55:00;;;;;;;;;;;;;;;;;;2197786;59;1998;-24
2023/12/19 15:57:30;;;;;;;;;;;;;;;;;;2197732;59;2488;-24
2023/12/19 16:00:00;;;;;;;;;;;;;;;;;;2194926;59;2253;-24
2023/12/19 16:02:32;;;;;;;;;;;;;;;;;;2198428;67;1814;-24
2023/12/19 16:05:03;;;;;;;;;;;;;;;;;;2197439;59;2463;-24
2023/12/19 16:07:33;;;;;;;;;;;;;;;;;;2197974;59;2152;-24
2023/12/19 16:10:04;;;;;;;;;;;;;;;;;;2197693;59;2245;-24
2023/12/19 16:12:35;;;;;;;;;;;;;;;;;;2197477;59;2969;-24
2023/12/19 16:15:05;;;;;;;;;;;;;;;;;;2196316;59;3239;-24
2023/12/19 16:17:35;;;;;;;;;;;;;;;;;;2197369;59;2772;-24
2023/12/19 16:20:06;;;;;;;;;;;;;;;;;;2196381;59;2599;-24
2023/12/19 16:22:36;;;;;;;;;;;;;;;;;;2197562;59;2623;-24
2023/12/19 16:25:07;;;;;;;;;;;;;;;;;;2192970;59;2547;-24
2023/12/19 16:27:37;;;;;;;;;;;;;;;;;;2197135;61;1806;-24
2023/12/19 16:30:07;;;;;;;;;;;;;;;;;;2196063;67;2435;-24
2023/12/19 16:32:38;;;;;;;;;;;;;;;;;;2194246;59;2706;-24
2023/12/19 16:35:08;;;;;;;;;;;;;;;;;;2196605;67;2029;-24
2023/12/19 16:37:38;;;;;;;;;;;;;;;;;;2197804;67;2891;-24
2023/12/19 16:40:09;;;;;;;;;;;;;;;;;;2196789;67;2051;-24
2023/12/19 16:42:39;;;;;;;;;;;;;;;;;;2197865;67;2018;-24
2023/12/19 16:45:09;;;;;;;;;;;;;;;;;;2196225;67;2147;-24
2023/12/19 16:47:39;;;;;;;;;;;;;;;;;;2197034;67;2412;-24
2023/12/19 16:50:10;;;;;;;;;;;;;;;;;;2196482;59;2718;-23
2023/12/19 16:52:42;;;;;;;;;;;;;;;;;;2197167;59;1983;-24
2023/12/19 16:55:12;;;;;;;;;;;;;;;;;;2196306;64;1949;-24
2023/12/19 16:57:42;;;;;;;;;;;;;;;;;;2197120;59;2427;-24
2023/12/19 17:00:14;;;;;;;;;;;;;;;;;;2195596;67;1962;-24
2023/12/19 17:02:44;;;;;;;;;;;;;;;;;;2194135;60;1941;-24
2023/12/19 17:05:14;;;;;;;;;;;;;;;;;;2196830;67;1836;-24
2023/12/19 17:07:44;;;;;;;;;;;;;;;;;;2197772;59;2372;-24
2023/12/19 17:10:15;;;;;;;;;;;;;;;;;;2196915;59;2033;-24
2023/12/19 17:12:46;;;;;;;;;;;;;;;;;;2198060;59;2375;-24
2023/12/19 17:15:16;;;;;;;;;;;;;;;;;;2197781;59;1963;-24
2023/12/19 17:17:47;;;;;;;;;;;;;;;;;;2197232;59;1774;-24
2023/12/19 17:20:17;;;;;;;;;;;;;;;;;;2198166;59;2562;-24
2023/12/19 17:22:48;;;;;;;;;;;;;;;;;;2197454;59;2608;-24
2023/12/19 17:25:18;;;;;;;;;;;;;;;;;;2197484;60;2035;-24
2023/12/19 17:27:48;;;;;;;;;;;;;;;;;;2198371;59;1839;-24
2023/12/19 17:30:18;;;;;;;;;;;;;;;;;;2196948;60;2690;-24
2023/12/19 17:32:49;;;;;;;;;;;;;;;;;;2197973;59;2260;-24
2023/12/19 17:35:19;;;;;;;;;;;;;;;;;;2200801;67;1923;-24
2023/12/19 17:37:50;;;;;;;;;;;;;;;;;;2202629;59;2138;-24